PWSweather.com
Personal Weather Stations
Station Observations
ELSA32
KawaguchiJP 3320011

KawaguchiJP 3320011

Lat: 35.795645, Lon: 139.730078

Elevation: 7

Station Type: VantagePRO2

http://www.elsatower32.org/

Latest ConditionsUpdated 12:00:00 PM GMT+09:09 Saturday, Jan 18, 2020
Currently Today's Max Today's Min Today's Average
Temperature 36.0°F2.2°C 46.2°F7.9°C 35.2°F1.8°C 42.8°F6.0°C
Dew Point 30.9°F-0.6°C 36.5°F2.5°C 30.4°F-0.9°C 33.8°F1.0°C
Winds 7.0 mph SE11.3 kmh SE 16.0 mph -25.7 kmh - - 9.9 mph 15.9 kmh
Wind Gusts 14.0 mph22.5 kmh 28.0 mph45.1 kmh - -
Humidity 82% 84% 64% 71%
Pressure 30.26 in1024.7 mb 30.35 in1027.8 mb 30.26 in1024.7 mb -
Precipitation - 0.03 in0.8 mm - -
Hour Temp Dew Point Humidity Winds Wind Gusts Pressure Precip Precip Rate Daily Precip Total
12:00 PM 36.0°F2.2°C 30.9°F-0.6°C 82% 7.0 mph SE11.3 kmh SE 14.0 mph22.5 kmh 30.26 in1024.7 mb 0.00 in0.0 mm 0.00 in0.0 mm 0.03 in0.8 mm
11:50 AM 35.4°F1.9°C 30.6°F-0.8°C 82% 9.0 mph ESE14.5 kmh ESE 17.0 mph27.4 kmh 30.27 in1025.1 mb 0.00 in0.0 mm 0.00 in0.0 mm 0.03 in0.8 mm
11:40 AM 35.2°F1.8°C 30.4°F-0.9°C 82% 12.0 mph SE19.3 kmh SE 21.0 mph33.8 kmh 30.27 in1025.1 mb 0.00 in0.0 mm 0.00 in0.0 mm 0.03 in0.8 mm
11:30 AM 35.2°F1.8°C 30.6°F-0.8°C 83% 16.0 mph SE25.7 kmh SE 27.0 mph43.5 kmh 30.28 in1025.4 mb 0.00 in0.0 mm 0.00 in0.0 mm 0.03 in0.8 mm
11:20 AM 35.2°F1.8°C 30.7°F-0.7°C 83% 13.0 mph SE20.9 kmh SE 20.0 mph32.2 kmh 30.28 in1025.4 mb 0.00 in0.0 mm 0.00 in0.0 mm 0.03 in0.8 mm
11:10 AM 35.4°F1.9°C 30.7°F-0.7°C 83% 11.0 mph SE17.7 kmh SE 28.0 mph45.1 kmh 30.29 in1025.7 mb 0.00 in0.0 mm 0.00 in0.0 mm 0.03 in0.8 mm
11:00 AM 35.4°F1.9°C 30.7°F-0.7°C 83% 13.0 mph SE20.9 kmh SE 24.0 mph38.6 kmh 30.30 in1026.1 mb 0.01 in0.3 mm 0.00 in0.0 mm 0.03 in0.8 mm
10:50 AM 35.4°F1.9°C 30.9°F-0.6°C 83% 12.0 mph SE19.3 kmh SE 21.0 mph33.8 kmh 30.30 in1026.1 mb 0.01 in0.3 mm 0.00 in0.0 mm 0.03 in0.8 mm
10:40 AM 35.4°F1.9°C 30.9°F-0.6°C 83% 14.0 mph SE22.5 kmh SE 25.0 mph40.2 kmh 30.31 in1026.4 mb 0.02 in0.5 mm 0.00 in0.0 mm 0.03 in0.8 mm
10:30 AM 35.6°F2.0°C 31.3°F-0.4°C 84% 12.0 mph ESE19.3 kmh ESE 24.0 mph38.6 kmh 30.31 in1026.4 mb 0.02 in0.5 mm 0.00 in0.0 mm 0.03 in0.8 mm
10:20 AM 35.8°F2.1°C 31.5°F-0.3°C 84% 13.0 mph SE20.9 kmh SE 22.0 mph35.4 kmh 30.31 in1026.4 mb 0.02 in0.5 mm 0.00 in0.0 mm 0.03 in0.8 mm
10:10 AM 35.8°F2.1°C 31.5°F-0.3°C 84% 11.0 mph SE17.7 kmh SE 23.0 mph37.0 kmh 30.32 in1026.8 mb 0.02 in0.5 mm 0.00 in0.0 mm 0.03 in0.8 mm
10:00 AM 36.0°F2.2°C 31.5°F-0.3°C 84% 14.0 mph SE22.5 kmh SE 19.0 mph30.6 kmh 30.32 in1026.8 mb 0.02 in0.5 mm 0.00 in0.0 mm 0.02 in0.5 mm
09:50 AM 36.1°F2.3°C 31.5°F-0.3°C 83% 13.0 mph ESE20.9 kmh ESE 19.0 mph30.6 kmh 30.32 in1026.8 mb 0.02 in0.5 mm 0.00 in0.0 mm 0.02 in0.5 mm
09:40 AM 36.7°F2.6°C 31.6°F-0.2°C 82% 15.0 mph ESE24.1 kmh ESE 23.0 mph37.0 kmh 30.32 in1026.8 mb 0.02 in0.5 mm 0.06 in1.5 mm 0.02 in0.5 mm
09:30 AM 37.2°F2.9°C 32.0°F0.0°C 81% 11.0 mph SE17.7 kmh SE 21.0 mph33.8 kmh 30.31 in1026.4 mb 0.01 in0.3 mm 0.00 in0.0 mm 0.01 in0.3 mm
09:20 AM 37.8°F3.2°C 32.0°F0.0°C 80% 11.0 mph SE17.7 kmh SE 23.0 mph37.0 kmh 30.31 in1026.4 mb 0.01 in0.3 mm 0.00 in0.0 mm 0.01 in0.3 mm
09:10 AM 37.8°F3.2°C 31.8°F-0.1°C 79% 7.0 mph SE11.3 kmh SE 14.0 mph22.5 kmh 30.31 in1026.4 mb 0.01 in0.3 mm 0.06 in1.5 mm 0.01 in0.3 mm
09:00 AM 38.3°F3.5°C 32.0°F0.0°C 78% 10.0 mph SE16.1 kmh SE 16.0 mph25.7 kmh 30.31 in1026.4 mb 0.00 in0.0 mm 0.00 in0.0 mm 0.00 in0.0 mm
08:50 AM 38.5°F3.6°C 32.0°F0.0°C 77% 7.0 mph ESE11.3 kmh ESE 19.0 mph30.6 kmh 30.31 in1026.4 mb 0.00 in0.0 mm 0.00 in0.0 mm 0.00 in0.0 mm
08:40 AM 39.0°F3.9°C 32.0°F0.0°C 76% 5.0 mph ESE8.0 kmh ESE 12.0 mph19.3 kmh 30.31 in1026.4 mb 0.00 in0.0 mm 0.00 in0.0 mm 0.00 in0.0 mm
08:30 AM 39.2°F4.0°C 32.0°F0.0°C 75% 8.0 mph ESE12.9 kmh ESE 20.0 mph32.2 kmh 30.31 in1026.4 mb 0.00 in0.0 mm 0.00 in0.0 mm 0.00 in0.0 mm
08:20 AM 39.6°F4.2°C 31.6°F-0.2°C 73% 7.0 mph SE11.3 kmh SE 14.0 mph22.5 kmh 30.30 in1026.1 mb 0.00 in0.0 mm 0.00 in0.0 mm 0.00 in0.0 mm
08:10 AM 39.9°F4.4°C 31.3°F-0.4°C 71% 7.0 mph SE11.3 kmh SE 14.0 mph22.5 kmh 30.31 in1026.4 mb 0.00 in0.0 mm 0.00 in0.0 mm 0.00 in0.0 mm
08:00 AM 40.1°F4.5°C 31.5°F-0.3°C 71% 9.0 mph SE14.5 kmh SE 14.0 mph22.5 kmh 30.31 in1026.4 mb 0.00 in0.0 mm 0.00 in0.0 mm 0.00 in0.0 mm
07:50 AM 40.1°F4.5°C 31.1°F-0.5°C 70% 9.0 mph SE14.5 kmh SE 13.0 mph20.9 kmh 30.30 in1026.1 mb 0.00 in0.0 mm 0.00 in0.0 mm 0.00 in0.0 mm
07:40 AM 40.3°F4.6°C 31.3°F-0.4°C 70% 9.0 mph SE14.5 kmh SE 15.0 mph24.1 kmh 30.30 in1026.1 mb 0.00 in0.0 mm 0.00 in0.0 mm 0.00 in0.0 mm
07:30 AM 46.2°F7.9°C 36.5°F2.5°C 69% 13.0 mph SE20.9 kmh SE 17.0 mph27.4 kmh 30.30 in1026.1 mb 0.00 in0.0 mm 0.00 in0.0 mm 0.00 in0.0 mm
07:20 AM 46.2°F7.9°C 35.4°F1.9°C 66% 13.0 mph SE20.9 kmh SE 17.0 mph27.4 kmh 30.31 in1026.4 mb 0.00 in0.0 mm 0.00 in0.0 mm 0.00 in0.0 mm
07:10 AM 46.2°F7.9°C 35.4°F1.9°C 66% 13.0 mph SE20.9 kmh SE 17.0 mph27.4 kmh 30.30 in1026.1 mb 0.00 in0.0 mm 0.00 in0.0 mm 0.00 in0.0 mm
07:00 AM 46.2°F7.9°C 35.4°F1.9°C 66% 13.0 mph SE20.9 kmh SE 17.0 mph27.4 kmh 30.30 in1026.1 mb 0.00 in0.0 mm 0.00 in0.0 mm 0.00 in0.0 mm
06:50 AM 46.2°F7.9°C 35.4°F1.9°C 66% 13.0 mph SE20.9 kmh SE 17.0 mph27.4 kmh 30.30 in1026.1 mb 0.00 in0.0 mm 0.00 in0.0 mm 0.00 in0.0 mm
06:40 AM 46.2°F7.9°C 35.4°F1.9°C 66% 13.0 mph SE20.9 kmh SE 17.0 mph27.4 kmh 30.30 in1026.1 mb 0.00 in0.0 mm 0.00 in0.0 mm 0.00 in0.0 mm
06:30 AM 46.2°F7.9°C 35.4°F1.9°C 66% 13.0 mph SE20.9 kmh SE 17.0 mph27.4 kmh 30.30 in1026.1 mb 0.00 in0.0 mm 0.00 in0.0 mm 0.00 in0.0 mm
06:20 AM 46.2°F7.9°C 35.4°F1.9°C 66% 13.0 mph SE20.9 kmh SE 17.0 mph27.4 kmh 30.30 in1026.1 mb 0.00 in0.0 mm 0.00 in0.0 mm 0.00 in0.0 mm
06:10 AM 46.2°F7.9°C 35.4°F1.9°C 66% 13.0 mph SE20.9 kmh SE 17.0 mph27.4 kmh 30.30 in1026.1 mb 0.00 in0.0 mm 0.00 in0.0 mm 0.00 in0.0 mm
06:00 AM 46.2°F7.9°C 35.4°F1.9°C 66% 13.0 mph SE20.9 kmh SE 17.0 mph27.4 kmh 30.30 in1026.1 mb 0.00 in0.0 mm 0.00 in0.0 mm 0.00 in0.0 mm
05:50 AM 46.2°F7.9°C 35.4°F1.9°C 66% 13.0 mph SE20.9 kmh SE 17.0 mph27.4 kmh 30.29 in1025.7 mb 0.00 in0.0 mm 0.00 in0.0 mm 0.00 in0.0 mm
05:40 AM 46.2°F7.9°C 35.4°F1.9°C 66% 13.0 mph SE20.9 kmh SE 17.0 mph27.4 kmh 30.29 in1025.7 mb 0.00 in0.0 mm 0.00 in0.0 mm 0.00 in0.0 mm
05:30 AM 46.2°F7.9°C 35.4°F1.9°C 66% 13.0 mph SE20.9 kmh SE 17.0 mph27.4 kmh 30.29 in1025.7 mb 0.00 in0.0 mm 0.00 in0.0 mm 0.00 in0.0 mm
05:20 AM 46.2°F7.9°C 35.4°F1.9°C 66% 13.0 mph SE20.9 kmh SE 17.0 mph27.4 kmh 30.29 in1025.7 mb 0.00 in0.0 mm 0.00 in0.0 mm 0.00 in0.0 mm
05:10 AM 46.2°F7.9°C 35.4°F1.9°C 66% 13.0 mph SE20.9 kmh SE 17.0 mph27.4 kmh 30.29 in1025.7 mb 0.00 in0.0 mm 0.00 in0.0 mm 0.00 in0.0 mm
05:00 AM 46.2°F7.9°C 35.4°F1.9°C 66% 13.0 mph SE20.9 kmh SE 17.0 mph27.4 kmh 30.29 in1025.7 mb 0.00 in0.0 mm 0.00 in0.0 mm 0.00 in0.0 mm
04:50 AM 46.2°F7.9°C 35.4°F1.9°C 66% 13.0 mph SE20.9 kmh SE 17.0 mph27.4 kmh 30.29 in1025.7 mb 0.00 in0.0 mm 0.00 in0.0 mm 0.00 in0.0 mm
04:40 AM 46.2°F7.9°C 35.4°F1.9°C 66% 13.0 mph SE20.9 kmh SE 17.0 mph27.4 kmh 30.29 in1025.7 mb 0.00 in0.0 mm 0.00 in0.0 mm 0.00 in0.0 mm
04:30 AM 46.2°F7.9°C 35.4°F1.9°C 66% 13.0 mph SE20.9 kmh SE 17.0 mph27.4 kmh 30.29 in1025.7 mb 0.00 in0.0 mm 0.00 in0.0 mm 0.00 in0.0 mm
04:20 AM 46.2°F7.9°C 35.4°F1.9°C 66% 13.0 mph SE20.9 kmh SE 17.0 mph27.4 kmh 30.30 in1026.1 mb 0.00 in0.0 mm 0.00 in0.0 mm 0.00 in0.0 mm
04:10 AM 46.2°F7.9°C 35.4°F1.9°C 66% 13.0 mph SE20.9 kmh SE 17.0 mph27.4 kmh 30.30 in1026.1 mb 0.00 in0.0 mm 0.00 in0.0 mm 0.00 in0.0 mm
04:00 AM 46.2°F7.9°C 35.4°F1.9°C 66% 11.0 mph ESE17.7 kmh ESE 17.0 mph27.4 kmh 30.30 in1026.1 mb 0.00 in0.0 mm 0.00 in0.0 mm 0.00 in0.0 mm
03:50 AM 46.2°F7.9°C 35.1°F1.7°C 65% 6.0 mph SE9.7 kmh SE 10.0 mph16.1 kmh 30.30 in1026.1 mb 0.00 in0.0 mm 0.00 in0.0 mm 0.00 in0.0 mm
03:40 AM 46.2°F7.9°C 35.1°F1.7°C 65% 4.0 mph ESE6.4 kmh ESE 12.0 mph19.3 kmh 30.30 in1026.1 mb 0.00 in0.0 mm 0.00 in0.0 mm 0.00 in0.0 mm
03:30 AM 46.2°F7.9°C 35.1°F1.7°C 65% 6.0 mph SE9.7 kmh SE 10.0 mph16.1 kmh 30.30 in1026.1 mb 0.00 in0.0 mm 0.00 in0.0 mm 0.00 in0.0 mm
03:20 AM 46.2°F7.9°C 34.7°F1.5°C 64% 8.0 mph ESE12.9 kmh ESE 11.0 mph17.7 kmh 30.31 in1026.4 mb 0.00 in0.0 mm 0.00 in0.0 mm 0.00 in0.0 mm
03:10 AM 46.2°F7.9°C 34.7°F1.5°C 64% 4.0 mph SE6.4 kmh SE 9.0 mph14.5 kmh 30.32 in1026.8 mb 0.00 in0.0 mm 0.00 in0.0 mm 0.00 in0.0 mm
03:00 AM 46.2°F7.9°C 34.7°F1.5°C 64% 5.0 mph ESE8.0 kmh ESE 9.0 mph14.5 kmh 30.32 in1026.8 mb 0.00 in0.0 mm 0.00 in0.0 mm 0.00 in0.0 mm
02:50 AM 46.2°F7.9°C 34.7°F1.5°C 64% 7.0 mph SE11.3 kmh SE 11.0 mph17.7 kmh 30.32 in1026.8 mb 0.00 in0.0 mm 0.00 in0.0 mm 0.00 in0.0 mm
02:40 AM 46.2°F7.9°C 34.7°F1.5°C 64% 8.0 mph ESE12.9 kmh ESE 11.0 mph17.7 kmh 30.32 in1026.8 mb 0.00 in0.0 mm 0.00 in0.0 mm 0.00 in0.0 mm
02:30 AM 46.2°F7.9°C 34.7°F1.5°C 64% 8.0 mph SE12.9 kmh SE 10.0 mph16.1 kmh 30.32 in1026.8 mb 0.00 in0.0 mm 0.00 in0.0 mm 0.00 in0.0 mm
02:20 AM 46.2°F7.9°C 34.7°F1.5°C 64% 8.0 mph SE12.9 kmh SE 12.0 mph19.3 kmh 30.33 in1027.1 mb 0.00 in0.0 mm 0.00 in0.0 mm 0.00 in0.0 mm
02:10 AM 46.2°F7.9°C 34.7°F1.5°C 64% 6.0 mph ESE9.7 kmh ESE 10.0 mph16.1 kmh 30.33 in1027.1 mb 0.00 in0.0 mm 0.00 in0.0 mm 0.00 in0.0 mm
02:00 AM 46.2°F7.9°C 35.1°F1.7°C 65% 5.0 mph SE8.0 kmh SE 9.0 mph14.5 kmh 30.34 in1027.4 mb 0.00 in0.0 mm 0.00 in0.0 mm 0.00 in0.0 mm
01:50 AM 46.2°F7.9°C 34.7°F1.5°C 64% 8.0 mph SE12.9 kmh SE 13.0 mph20.9 kmh 30.34 in1027.4 mb 0.00 in0.0 mm 0.00 in0.0 mm 0.00 in0.0 mm
01:40 AM 46.2°F7.9°C 34.7°F1.5°C 64% 6.0 mph SE9.7 kmh SE 11.0 mph17.7 kmh 30.34 in1027.4 mb 0.00 in0.0 mm 0.00 in0.0 mm 0.00 in0.0 mm
01:30 AM 46.2°F7.9°C 35.1°F1.7°C 65% 6.0 mph SE9.7 kmh SE 9.0 mph14.5 kmh 30.34 in1027.4 mb 0.00 in0.0 mm 0.00 in0.0 mm 0.00 in0.0 mm
01:20 AM 46.2°F7.9°C 35.1°F1.7°C 65% 6.0 mph SE9.7 kmh SE 11.0 mph17.7 kmh 30.35 in1027.8 mb 0.00 in0.0 mm 0.00 in0.0 mm 0.00 in0.0 mm
01:10 AM 46.2°F7.9°C 35.4°F1.9°C 66% 8.0 mph SE12.9 kmh SE 12.0 mph19.3 kmh 30.35 in1027.8 mb 0.00 in0.0 mm 0.00 in0.0 mm 0.00 in0.0 mm
01:00 AM 46.2°F7.9°C 35.4°F1.9°C 66% 8.0 mph SE12.9 kmh SE 12.0 mph19.3 kmh 30.35 in1027.8 mb 0.00 in0.0 mm 0.00 in0.0 mm 0.00 in0.0 mm
12:50 AM 46.2°F7.9°C 35.8°F2.1°C 67% 7.0 mph ESE11.3 kmh ESE 11.0 mph17.7 kmh 30.35 in1027.8 mb 0.00 in0.0 mm 0.00 in0.0 mm 0.00 in0.0 mm
12:40 AM 46.2°F7.9°C 36.1°F2.3°C 68% 4.0 mph SE6.4 kmh SE 8.0 mph12.9 kmh 30.35 in1027.8 mb 0.00 in0.0 mm 0.00 in0.0 mm 0.00 in0.0 mm
12:30 AM 46.2°F7.9°C 36.1°F2.3°C 68% 5.0 mph SE8.0 kmh SE 10.0 mph16.1 kmh 30.35 in1027.8 mb 0.00 in0.0 mm 0.00 in0.0 mm 0.00 in0.0 mm
12:20 AM 46.2°F7.9°C 36.1°F2.3°C 68% 6.0 mph SE9.7 kmh SE 12.0 mph19.3 kmh 30.35 in1027.8 mb 0.00 in0.0 mm 0.00 in0.0 mm 0.00 in0.0 mm
12:10 AM 46.2°F7.9°C 36.1°F2.3°C 68% 7.0 mph SE11.3 kmh SE 12.0 mph19.3 kmh 30.35 in1027.8 mb 0.00 in0.0 mm 0.00 in0.0 mm 0.00 in0.0 mm
12:00 AM 46.2°F7.9°C 36.1°F2.3°C 68% 7.0 mph SE11.3 kmh SE 12.0 mph19.3 kmh 30.35 in1027.8 mb 0.00 in0.0 mm 0.00 in0.0 mm 0.00 in0.0 mm